AirNav   Pilot Hours Calculator
 
 1152 users online  

MI21 Dan's Apple Farm Heliport
Clinton, Michigan, USA

GOING TO CLINTON?


FAA INFORMATION EFFECTIVE 07 NOVEMBER 2019

Location

FAA Identifier: MI21
Lat/Long: 42-37-17.5400N 082-52-32.5200W
42-37.292333N 082-52.542000W
42.6215389,-82.8757000
(estimated)
Elevation: 620 ft. / 189 m (estimated)
From city: 3 miles NE of CLINTON, MI
Time zone: UTC -5 (UTC -4 during Daylight Saving Time)
Zip code: 48043

Heliport Operations

Heliport use: Private use. Permission required prior to landing
Activation date: 01/2017
Control tower: no
ARTCC: CLEVELAND CENTER
FSS: LANSING FLIGHT SERVICE STATION
Attendance: 
Segmented circle: no

Heliport Communications

WX ASOS at DET (14 nm SW): PHONE 313-371-9696
WX AWOS-3 at VLL (14 nm W): 119.475 (248-288-4649)

Nearby radio navigation aids

VOR radial/distance  VOR name  Freq  Var
YQGr001/22.4WINDSOR VOR/DME113.8006W
DXOr048/32.8DETROIT VOR/DME113.4006W
SVMr071/34.2SALEM VORTAC114.3003W

 
NDB name  Hdg/Dist  Freq  Var  ID
GROSSE ILE028/33.641907WRYS .-. -.-- ...

Heliport Services

Runway Information

Helipad H1

Dimensions: 30 x 30 ft. / 9 x 9 m
Surface: turf
Traffic pattern: leftleft

Heliport Ownership and Management from official FAA records

Ownership: Privately-owned
Owner: DANIEL MAKUROF
23161 OBERLIESEN RD
CLINTON TOWNSHIP, MI 48036
Phone 586 997 7466

Additional Remarks

FOR CD CTC CLEVELAND ARTCC AT 440-774-0490.

Instrument Procedures

There are no published instrument procedures at MI21.

Some nearby airports with instrument procedures:

KMTC - Selfridge Air National Guard Base (2 nm E)
57D - Ray Community Airport (7 nm N)
D98 - Romeo State Airport (11 nm N)
KDET - Coleman A Young Municipal Airport (14 nm SW)
KVLL - Oakland/Troy Airport (14 nm W)
 
Loc | Ops | Rwys | IFR | FBO | Links
Com | Nav | Svcs | Stats | Notes
Aerial photo
No photo
 
Airport distance calculator
Flying to Dan's Apple Farm Heliport? Find the distance to fly.

From to MI21

Sunrise and sunset
Times for 15-Nov-2019
 Local
(UTC-5)
 Zulu
(UTC)
Morning civil twilight06:5411:54
Sunrise07:2412:24
Sunset17:0822:08
Evening civil twilight17:3922:39

Current date and time
Zulu (UTC)  15-Nov-2019 21:12:36
Local (UTC-5)  15-Nov-2019 16:12:36
 
METAR
KMTC 
3nm E 
152056Z 27006KT 6SM HZ BKN020 BKN200 02/M03 A3032 RMK SLP281 WND DATA ESTMD ALSTG/SLP ESTMD 53014
KVLL 
14nm W 
152056Z AUTO 33004KT 10SM OVC023 02/M02 A3032 RMK AO2 T00171022
KDET 
15nm SW 
152053Z 34005KT 10SM OVC023 02/M03 A3032 RMK AO2 SLP272 T00221033 53012
TAF
KMTC 
3nm E 
151700Z 1517/1623 VRB06KT 9999 BKN015 620154 QNH3026INS BECMG 1600/1601 VRB06KT 9999 BKN020 620204 QNH3035INS BECMG 1611/1612 06009KT 9999 FEW020 QNH3046INS TX01/1521Z TNM08/1612Z
KDET 
15nm SW 
152016Z 1520/1618 31007KT P6SM OVC020 FM160000 35004KT P6SM BKN025 FM160600 03006KT P6SM BKN030 FM161000 04005KT P6SM SCT025 BKN200 FM161400 06009KT P6SM BKN025
NOTAMs
Click for the latest NOTAMs
NOTAMs are issued by the DoD/FAA and will open in a separate window not controlled by AirNav.

 

 
 

Would you like to see your business listed on this page?

 If your business provides an interesting product or service to pilots, flight crews, aircraft, or users of the Dan's Apple Farm Heliport, you should consider listing it here.  To start the listing process, click on the button below
 
Add a business
 

Other Pages about Dan's Apple Farm Heliport

Update a link
 
Copyright © AirNav, LLC. All rights reserved. Privacy Policy  Contact